sensor_id;sensor_type;location;lat;lon;timestamp;pressure;altitude;pressure_sealevel;temperature;humidity
62655;BME280;48717;55.556;37.816;2024-02-23T00:00:12;99689.59;;;-3.76;100.00
62655;BME280;48717;55.556;37.816;2024-02-23T00:02:40;99668.00;;;-3.95;100.00
62655;BME280;48717;55.556;37.816;2024-02-23T00:05:07;99685.06;;;-3.80;100.00
62655;BME280;48717;55.556;37.816;2024-02-23T00:07:35;99685.38;;;-3.90;100.00
62655;BME280;48717;55.556;37.816;2024-02-23T00:10:03;99682.81;;;-3.90;100.00
62655;BME280;48717;55.556;37.816;2024-02-23T00:12:31;99683.00;;;-3.87;100.00
62655;BME280;48717;55.556;37.816;2024-02-23T00:14:58;99679.59;;;-3.86;100.00
62655;BME280;48717;55.556;37.816;2024-02-23T00:17:26;99684.75;;;-3.86;100.00
62655;BME280;48717;55.556;37.816;2024-02-23T00:19:53;99674.28;;;-3.89;100.00
62655;BME280;48717;55.556;37.816;2024-02-23T00:22:20;99679.44;;;-3.89;100.00
62655;BME280;48717;55.556;37.816;2024-02-23T00:24:48;99690.00;;;-3.85;100.00
62655;BME280;48717;55.556;37.816;2024-02-23T00:27:15;99681.38;;;-3.85;100.00
62655;BME280;48717;55.556;37.816;2024-02-23T00:29:43;99682.19;;;-3.86;100.00
62655;BME280;48717;55.556;37.816;2024-02-23T00:32:11;99679.78;;;-3.83;100.00
62655;BME280;48717;55.556;37.816;2024-02-23T00:34:39;99677.97;;;-3.84;100.00
62655;BME280;48717;55.556;37.816;2024-02-23T00:37:07;99683.31;;;-3.81;100.00
62655;BME280;48717;55.556;37.816;2024-02-23T00:39:35;99682.41;;;-3.82;100.00
62655;BME280;48717;55.556;37.816;2024-02-23T00:42:03;99690.22;;;-3.80;100.00
62655;BME280;48717;55.556;37.816;2024-02-23T00:44:31;99677.66;;;-3.90;100.00
62655;BME280;48717;55.556;37.816;2024-02-23T00:46:59;99676.94;;;-3.88;100.00
62655;BME280;48717;55.556;37.816;2024-02-23T00:49:28;99678.69;;;-3.87;100.00
62655;BME280;48717;55.556;37.816;2024-02-23T00:51:56;99677.13;;;-3.85;100.00
62655;BME280;48717;55.556;37.816;2024-02-23T00:54:23;99689.38;;;-3.81;100.00
62655;BME280;48717;55.556;37.816;2024-02-23T00:56:51;99684.31;;;-3.79;100.00
62655;BME280;48717;55.556;37.816;2024-02-23T00:59:22;99690.22;;;-3.80;100.00
62655;BME280;48717;55.556;37.816;2024-02-23T01:01:49;99674.63;;;-3.83;100.00
62655;BME280;48717;55.556;37.816;2024-02-23T01:04:17;99681.72;;;-3.79;100.00
62655;BME280;48717;55.556;37.816;2024-02-23T01:06:45;99684.22;;;-3.81;100.00
62655;BME280;48717;55.556;37.816;2024-02-23T01:09:12;99686.88;;;-3.79;100.00
62655;BME280;48717;55.556;37.816;2024-02-23T01:11:40;99697.34;;;-3.76;100.00
62655;BME280;48717;55.556;37.816;2024-02-23T01:14:08;99686.88;;;-3.79;100.00
62655;BME280;48717;55.556;37.816;2024-02-23T01:16:35;99693.97;;;-3.75;100.00
62655;BME280;48717;55.556;37.816;2024-02-23T01:19:02;99692.53;;;-3.70;100.00
62655;BME280;48717;55.556;37.816;2024-02-23T01:21:30;99692.66;;;-3.67;100.00
62655;BME280;48717;55.556;37.816;2024-02-23T01:23:57;99687.06;;;-3.59;100.00
62655;BME280;48717;55.556;37.816;2024-02-23T01:26:27;99697.28;;;-3.61;100.00
62655;BME280;48717;55.556;37.816;2024-02-23T01:28:55;99699.00;;;-3.61;100.00
62655;BME280;48717;55.556;37.816;2024-02-23T01:31:24;99690.53;;;-3.59;100.00
62655;BME280;48717;55.556;37.816;2024-02-23T01:33:51;99687.88;;;-3.60;100.00
62655;BME280;48717;55.556;37.816;2024-02-23T01:36:19;99671.91;;;-3.70;100.00
62655;BME280;48717;55.556;37.816;2024-02-23T01:38:46;99698.00;;;-3.63;100.00
62655;BME280;48717;55.556;37.816;2024-02-23T01:41:13;99689.31;;;-3.65;100.00
62655;BME280;48717;55.556;37.816;2024-02-23T01:43:41;99692.84;;;-3.63;100.00
62655;BME280;48717;55.556;37.816;2024-02-23T01:46:08;99696.41;;;-3.61;100.00
62655;BME280;48717;55.556;37.816;2024-02-23T01:48:36;99681.63;;;-3.64;100.00
62655;BME280;48717;55.556;37.816;2024-02-23T01:51:04;99688.00;;;-3.57;100.00
62655;BME280;48717;55.556;37.816;2024-02-23T01:53:32;99691.41;;;-3.58;100.00
62655;BME280;48717;55.556;37.816;2024-02-23T01:56:00;99685.28;;;-3.60;100.00
62655;BME280;48717;55.556;37.816;2024-02-23T01:58:28;99688.00;;;-3.57;100.00
62655;BME280;48717;55.556;37.816;2024-02-23T02:00:56;99682.34;;;-3.67;100.00
62655;BME280;48717;55.556;37.816;2024-02-23T02:03:24;99696.47;;;-3.60;100.00
62655;BME280;48717;55.556;37.816;2024-02-23T02:05:53;99707.22;;;-3.52;100.00
62655;BME280;48717;55.556;37.816;2024-02-23T02:08:23;99710.56;;;-3.53;100.00
62655;BME280;48717;55.556;37.816;2024-02-23T02:10:51;99699.13;;;-3.58;100.00
62655;BME280;48717;55.556;37.816;2024-02-23T02:13:19;99706.31;;;-3.52;100.00
62655;BME280;48717;55.556;37.816;2024-02-23T02:15:46;99691.41;;;-3.58;100.00
62655;BME280;48717;55.556;37.816;2024-02-23T02:18:14;99702.06;;;-3.52;100.00
62655;BME280;48717;55.556;37.816;2024-02-23T02:20:51;99700.44;;;-3.50;100.00
62655;BME280;48717;55.556;37.816;2024-02-23T02:23:19;99703.75;;;-3.52;100.00
62655;BME280;48717;55.556;37.816;2024-02-23T02:25:56;99705.59;;;-3.50;100.00
62655;BME280;48717;55.556;37.816;2024-02-23T02:28:25;99706.63;;;-3.46;100.00
62655;BME280;48717;55.556;37.816;2024-02-23T02:30:52;99691.03;;;-3.49;100.00
62655;BME280;48717;55.556;37.816;2024-02-23T02:33:21;99697.38;;;-3.43;100.00
62655;BME280;48717;55.556;37.816;2024-02-23T02:35:49;99705.94;;;-3.44;100.00
62655;BME280;48717;55.556;37.816;2024-02-23T02:38:19;99699.47;;;-3.52;100.00
62655;BME280;48717;55.556;37.816;2024-02-23T02:40:46;99689.81;;;-3.56;100.00
62655;BME280;48717;55.556;37.816;2024-02-23T02:43:14;99709.16;;;-3.48;100.00
62655;BME280;48717;55.556;37.816;2024-02-23T02:45:41;99702.19;;;-3.49;100.00
62655;BME280;48717;55.556;37.816;2024-02-23T02:48:09;99707.53;;;-3.46;100.00
62655;BME280;48717;55.556;37.816;2024-02-23T02:50:37;99714.31;;;-3.48;100.00
62655;BME280;48717;55.556;37.816;2024-02-23T02:53:04;99696.91;;;-3.52;100.00
62655;BME280;48717;55.556;37.816;2024-02-23T02:55:31;99705.75;;;-3.47;100.00
62655;BME280;48717;55.556;37.816;2024-02-23T02:57:59;99706.94;;;-3.57;100.00
62655;BME280;48717;55.556;37.816;2024-02-23T03:00:27;99715.19;;;-3.47;100.00
62655;BME280;48717;55.556;37.816;2024-02-23T03:02:55;99721.41;;;-3.44;100.00
62655;BME280;48717;55.556;37.816;2024-02-23T03:05:22;99721.97;;;-3.49;100.00
62655;BME280;48717;55.556;37.816;2024-02-23T03:07:49;99704.63;;;-3.52;100.00
62655;BME280;48717;55.556;37.816;2024-02-23T03:10:17;99725.50;;;-3.47;100.00
62655;BME280;48717;55.556;37.816;2024-02-23T03:12:44;99720.88;;;-3.53;100.00
62655;BME280;48717;55.556;37.816;2024-02-23T03:15:12;99723.63;;;-3.50;100.00
62655;BME280;48717;55.556;37.816;2024-02-23T03:17:39;99726.22;;;-3.50;100.00
62655;BME280;48717;55.556;37.816;2024-02-23T03:20:07;99720.41;;;-3.46;100.00
62655;BME280;48717;55.556;37.816;2024-02-23T03:22:38;99715.34;;;-3.44;100.00
62655;BME280;48717;55.556;37.816;2024-02-23T03:25:06;99735.66;;;-3.50;100.00
62655;BME280;48717;55.556;37.816;2024-02-23T03:27:37;99742.59;;;-3.49;100.00
62655;BME280;48717;55.556;37.816;2024-02-23T03:30:06;99742.03;;;-3.44;100.00
62655;BME280;48717;55.556;37.816;2024-02-23T03:32:35;99713.78;;;-3.57;100.00
62655;BME280;48717;55.556;37.816;2024-02-23T03:35:07;99727.34;;;-3.45;100.00
62655;BME280;48717;55.556;37.816;2024-02-23T03:37:35;99739.69;;;-3.39;100.00
62655;BME280;48717;55.556;37.816;2024-02-23T03:40:04;99737.91;;;-3.40;100.00
62655;BME280;48717;55.556;37.816;2024-02-23T03:42:32;99744.94;;;-3.37;100.00
62655;BME280;48717;55.556;37.816;2024-02-23T03:44:59;99743.94;;;-3.39;100.00
62655;BME280;48717;55.556;37.816;2024-02-23T03:47:28;99748.53;;;-3.34;100.00
62655;BME280;48717;55.556;37.816;2024-02-23T03:49:56;99742.34;;;-3.37;100.00
62655;BME280;48717;55.556;37.816;2024-02-23T03:52:23;99754.44;;;-3.36;100.00
62655;BME280;48717;55.556;37.816;2024-02-23T03:54:51;99750.00;;;-3.39;100.00
62655;BME280;48717;55.556;37.816;2024-02-23T03:57:19;99746.59;;;-3.38;100.00
62655;BME280;48717;55.556;37.816;2024-02-23T03:59:55;99732.59;;;-3.43;100.00
62655;BME280;48717;55.556;37.816;2024-02-23T04:02:23;99733.63;;;-3.39;100.00
62655;BME280;48717;55.556;37.816;2024-02-23T04:04:50;99746.69;;;-3.36;100.00
62655;BME280;48717;55.556;37.816;2024-02-23T04:07:18;99740.03;;;-3.33;100.00
62655;BME280;48717;55.556;37.816;2024-02-23T04:09:47;99740.72;;;-3.35;100.00
62655;BME280;48717;55.556;37.816;2024-02-23T04:12:19;99745.56;;;-3.42;100.00
62655;BME280;48717;55.556;37.816;2024-02-23T04:14:47;99752.00;;;-3.50;100.00
62655;BME280;48717;55.556;37.816;2024-02-23T04:17:15;99759.25;;;-3.43;100.00
62655;BME280;48717;55.556;37.816;2024-02-23T04:19:43;99753.47;;;-3.38;100.00
62655;BME280;48717;55.556;37.816;2024-02-23T04:22:11;99751.03;;;-3.35;100.00
62655;BME280;48717;55.556;37.816;2024-02-23T04:24:40;99716.06;;;-3.47;100.00
62655;BME280;48717;55.556;37.816;2024-02-23T04:27:08;99735.44;;;-3.38;100.00
62655;BME280;48717;55.556;37.816;2024-02-23T04:29:35;99724.47;;;-3.34;100.00
62655;BME280;48717;55.556;37.816;2024-02-23T04:32:03;99731.63;;;-3.29;100.00
62655;BME280;48717;55.556;37.816;2024-02-23T04:34:31;99742.84;;;-3.28;100.00
62655;BME280;48717;55.556;37.816;2024-02-23T04:36:59;99726.41;;;-3.30;100.00
62655;BME280;48717;55.556;37.816;2024-02-23T04:39:26;99711.59;;;-3.34;100.00
62655;BME280;48717;55.556;37.816;2024-02-23T04:41:54;99739.63;;;-3.24;100.00
62655;BME280;48717;55.556;37.816;2024-02-23T04:44:22;99748.16;;;-3.25;100.00
62655;BME280;48717;55.556;37.816;2024-02-23T04:46:50;99730.50;;;-3.34;100.00
62655;BME280;48717;55.556;37.816;2024-02-23T04:49:17;99734.16;;;-3.30;100.00
62655;BME280;48717;55.556;37.816;2024-02-23T04:51:45;99760.88;;;-3.28;100.00
62655;BME280;48717;55.556;37.816;2024-02-23T04:54:12;99753.16;;;-3.28;100.00
62655;BME280;48717;55.556;37.816;2024-02-23T04:56:39;99753.47;;;-3.22;100.00
62655;BME280;48717;55.556;37.816;2024-02-23T04:59:07;99744.78;;;-3.24;100.00
62655;BME280;48717;55.556;37.816;2024-02-23T05:01:36;99736.09;;;-3.26;100.00
62655;BME280;48717;55.556;37.816;2024-02-23T05:04:04;99767.03;;;-3.26;100.00
62655;BME280;48717;55.556;37.816;2024-02-23T05:06:32;99756.72;;;-3.26;100.00
62655;BME280;48717;55.556;37.816;2024-02-23T05:08:59;99767.09;;;-3.24;100.00
62655;BME280;48717;55.556;37.816;2024-02-23T05:11:27;99763.47;;;-3.28;100.00
62655;BME280;48717;55.556;37.816;2024-02-23T05:13:55;99756.72;;;-3.26;100.00
62655;BME280;48717;55.556;37.816;2024-02-23T05:16:22;99768.16;;;-3.21;100.00
62655;BME280;48717;55.556;37.816;2024-02-23T05:18:49;99763.78;;;-3.22;100.00
62655;BME280;48717;55.556;37.816;2024-02-23T05:21:17;99774.81;;;-3.24;100.00
62655;BME280;48717;55.556;37.816;2024-02-23T05:23:46;99760.44;;;-3.21;100.00
62655;BME280;48717;55.556;37.816;2024-02-23T05:26:16;99773.63;;;-3.15;100.00
62655;BME280;48717;55.556;37.816;2024-02-23T05:28:43;99765.91;;;-3.15;100.00
62655;BME280;48717;55.556;37.816;2024-02-23T05:31:11;99765.09;;;-3.13;100.00
62655;BME280;48717;55.556;37.816;2024-02-23T05:33:38;99772.63;;;-3.02;100.00
62655;BME280;48717;55.556;37.816;2024-02-23T05:36:07;99778.47;;;-3.04;100.00
62655;BME280;48717;55.556;37.816;2024-02-23T05:38:35;99783.31;;;-3.10;100.00
62655;BME280;48717;55.556;37.816;2024-02-23T05:41:02;99776.56;;;-3.08;100.00
62655;BME280;48717;55.556;37.816;2024-02-23T05:43:32;99782.41;;;-3.11;100.00
62655;BME280;48717;55.556;37.816;2024-02-23T05:45:59;99795.56;;;-3.06;100.00
62655;BME280;48717;55.556;37.816;2024-02-23T05:48:26;99787.19;;;-3.02;100.00
62655;BME280;48717;55.556;37.816;2024-02-23T05:50:54;99798.47;;;-3.00;100.00
62655;BME280;48717;55.556;37.816;2024-02-23T05:53:22;99797.81;;;-2.96;100.00
62655;BME280;48717;55.556;37.816;2024-02-23T05:55:49;99782.22;;;-2.99;100.00
62655;BME280;48717;55.556;37.816;2024-02-23T05:58:17;99792.34;;;-3.02;100.00
62655;BME280;48717;55.556;37.816;2024-02-23T06:00:44;99776.38;;;-3.11;100.00
62655;BME280;48717;55.556;37.816;2024-02-23T06:03:12;99788.78;;;-3.04;100.00
62655;BME280;48717;55.556;37.816;2024-02-23T06:05:40;99789.88;;;-3.00;100.00
62655;BME280;48717;55.556;37.816;2024-02-23T06:08:08;99799.28;;;-3.01;100.00
62655;BME280;48717;55.556;37.816;2024-02-23T06:10:37;99797.75;;;-2.97;100.00
62655;BME280;48717;55.556;37.816;2024-02-23T06:13:05;99794.59;;;-2.92;100.00
62655;BME280;48717;55.556;37.816;2024-02-23T06:15:32;99815.09;;;-2.95;100.00
62655;BME280;48717;55.556;37.816;2024-02-23T06:18:00;99811.47;;;-2.98;100.00
62655;BME280;48717;55.556;37.816;2024-02-23T06:20:27;99817.75;;;-2.93;100.00
62655;BME280;48717;55.556;37.816;2024-02-23T06:22:55;99796.06;;;-2.97;100.00
62655;BME280;48717;55.556;37.816;2024-02-23T06:25:23;99798.16;;;-2.90;100.00
62655;BME280;48717;55.556;37.816;2024-02-23T06:27:50;99807.75;;;-2.87;100.00
62655;BME280;48717;55.556;37.816;2024-02-23T06:30:18;99815.19;;;-2.77;100.00
62655;BME280;48717;55.556;37.816;2024-02-23T06:32:45;99780.19;;;-2.88;100.00
62655;BME280;48717;55.556;37.816;2024-02-23T06:35:13;99820.03;;;-2.66;100.00
62655;BME280;48717;55.556;37.816;2024-02-23T06:37:41;99799.13;;;-2.71;100.00
62655;BME280;48717;55.556;37.816;2024-02-23T06:40:09;99806.41;;;-2.64;100.00
62655;BME280;48717;55.556;37.816;2024-02-23T06:42:37;99806.69;;;-2.57;100.00
62655;BME280;48717;55.556;37.816;2024-02-23T06:45:06;99784.03;;;-2.63;99.65
62655;BME280;48717;55.556;37.816;2024-02-23T06:47:34;99813.81;;;-2.53;100.00
62655;BME280;48717;55.556;37.816;2024-02-23T06:50:03;99804.03;;;-2.59;99.77
62655;BME280;48717;55.556;37.816;2024-02-23T06:52:31;99816.72;;;-2.64;99.30
62655;BME280;48717;55.556;37.816;2024-02-23T06:55:00;99817.03;;;-2.57;99.57
62655;BME280;48717;55.556;37.816;2024-02-23T06:57:29;99821.16;;;-2.61;99.41
62655;BME280;48717;55.556;37.816;2024-02-23T06:59:58;99828.09;;;-2.60;99.13
62655;BME280;48717;55.556;37.816;2024-02-23T07:02:25;99808.16;;;-2.63;99.03
62655;BME280;48717;55.556;37.816;2024-02-23T07:04:53;99819.22;;;-2.65;98.90
62655;BME280;48717;55.556;37.816;2024-02-23T07:07:22;99834.16;;;-2.59;98.30
62655;BME280;48717;55.556;37.816;2024-02-23T07:09:53;99807.50;;;-2.75;98.55
62655;BME280;48717;55.556;37.816;2024-02-23T07:12:23;99839.16;;;-2.63;98.89
62655;BME280;48717;55.556;37.816;2024-02-23T07:14:50;99836.31;;;-2.67;98.59
62655;BME280;48717;55.556;37.816;2024-02-23T07:17:18;99845.91;;;-2.65;98.58
62655;BME280;48717;55.556;37.816;2024-02-23T07:19:45;99828.47;;;-2.69;98.77
62655;BME280;48717;55.556;37.816;2024-02-23T07:22:15;99819.59;;;-2.74;99.00
62655;BME280;48717;55.556;37.816;2024-02-23T07:24:43;99838.41;;;-2.60;99.09
62655;BME280;48717;55.556;37.816;2024-02-23T07:27:11;99832.34;;;-2.60;98.96
62655;BME280;48717;55.556;37.816;2024-02-23T07:29:38;99835.00;;;-2.59;98.53
62655;BME280;48717;55.556;37.816;2024-02-23T07:32:06;99821.00;;;-2.64;98.88
62655;BME280;48717;55.556;37.816;2024-02-23T07:34:34;99838.72;;;-2.54;99.09
62655;BME280;48717;55.556;37.816;2024-02-23T07:37:02;99827.84;;;-2.65;98.19
62655;BME280;48717;55.556;37.816;2024-02-23T07:39:30;99841.06;;;-2.58;98.61
62655;BME280;48717;55.556;37.816;2024-02-23T07:41:57;99817.69;;;-2.62;98.89
62655;BME280;48717;55.556;37.816;2024-02-23T07:44:25;99853.34;;;-2.54;98.63
62655;BME280;48717;55.556;37.816;2024-02-23T07:46:53;99851.41;;;-2.58;98.71
62655;BME280;48717;55.556;37.816;2024-02-23T07:49:21;99849.78;;;-2.56;98.59
62655;BME280;48717;55.556;37.816;2024-02-23T07:51:52;99840.81;;;-2.63;98.60
62655;BME280;48717;55.556;37.816;2024-02-23T07:54:19;99832.34;;;-2.60;98.32
62655;BME280;48717;55.556;37.816;2024-02-23T07:56:47;99844.13;;;-2.49;98.51
62655;BME280;48717;55.556;37.816;2024-02-23T07:59:14;99820.44;;;-2.58;98.84
62655;BME280;48717;55.556;37.816;2024-02-23T08:01:42;99822.19;;;-2.57;98.45
62655;BME280;48717;55.556;37.816;2024-02-23T08:04:09;99842.50;;;-2.47;98.47
62655;BME280;48717;55.556;37.816;2024-02-23T08:06:36;99841.72;;;-2.46;98.12
62655;BME280;48717;55.556;37.816;2024-02-23T08:09:04;99848.16;;;-2.38;98.29
62655;BME280;48717;55.556;37.816;2024-02-23T08:11:32;99857.53;;;-2.40;96.88
62655;BME280;48717;55.556;37.816;2024-02-23T08:14:02;99858.72;;;-2.33;97.51
62655;BME280;48717;55.556;37.816;2024-02-23T08:16:30;99867.75;;;-2.25;97.78
62655;BME280;48717;55.556;37.816;2024-02-23T08:18:58;99815.31;;;-2.40;96.68
62655;BME280;48717;55.556;37.816;2024-02-23T08:21:25;99840.16;;;-2.26;96.61
62655;BME280;48717;55.556;37.816;2024-02-23T08:23:53;99862.75;;;-2.21;96.71
62655;BME280;48717;55.556;37.816;2024-02-23T08:26:21;99862.97;;;-2.17;96.19
62655;BME280;48717;55.556;37.816;2024-02-23T08:28:49;99866.69;;;-2.12;95.47
62655;BME280;48717;55.556;37.816;2024-02-23T08:31:16;99868.41;;;-2.12;96.02
62655;BME280;48717;55.556;37.816;2024-02-23T08:33:44;99869.13;;;-2.15;95.99
62655;BME280;48717;55.556;37.816;2024-02-23T08:36:12;99858.47;;;-2.21;95.59
62655;BME280;48717;55.556;37.816;2024-02-23T08:38:40;99875.59;;;-2.23;96.08
62655;BME280;48717;55.556;37.816;2024-02-23T08:41:08;99873.22;;;-2.18;96.68
62655;BME280;48717;55.556;37.816;2024-02-23T08:43:36;99861.88;;;-2.22;96.05
62655;BME280;48717;55.556;37.816;2024-02-23T08:46:04;99875.72;;;-2.20;96.22
62655;BME280;48717;55.556;37.816;2024-02-23T08:48:36;99861.28;;;-2.16;96.24
62655;BME280;48717;55.556;37.816;2024-02-23T08:51:04;99878.63;;;-1.97;96.31
62655;BME280;48717;55.556;37.816;2024-02-23T08:53:31;99850.78;;;-2.03;95.20
62655;BME280;48717;55.556;37.816;2024-02-23T08:55:58;99872.72;;;-1.94;95.71
62655;BME280;48717;55.556;37.816;2024-02-23T08:58:26;99863.13;;;-1.97;95.40
62655;BME280;48717;55.556;37.816;2024-02-23T09:00:53;99870.69;;;-1.84;95.14
62655;BME280;48717;55.556;37.816;2024-02-23T09:03:22;99854.72;;;-1.93;95.44
62655;BME280;48717;55.556;37.816;2024-02-23T09:05:50;99872.91;;;-1.73;94.70
62655;BME280;48717;55.556;37.816;2024-02-23T09:08:18;99890.78;;;-1.60;94.63
62655;BME280;48717;55.556;37.816;2024-02-23T09:10:45;99851.19;;;-1.59;93.72
62655;BME280;48717;55.556;37.816;2024-02-23T09:13:13;99863.16;;;-1.42;94.07
62655;BME280;48717;55.556;37.816;2024-02-23T09:15:41;99871.97;;;-1.39;92.65
62655;BME280;48717;55.556;37.816;2024-02-23T09:18:10;99876.75;;;-1.28;92.51
62655;BME280;48717;55.556;37.816;2024-02-23T09:20:37;99880.59;;;-1.20;92.47
62655;BME280;48717;55.556;37.816;2024-02-23T09:23:05;99858.56;;;-1.12;92.15
62655;BME280;48717;55.556;37.816;2024-02-23T09:25:32;99858.72;;;-1.09;92.58
62655;BME280;48717;55.556;37.816;2024-02-23T09:28:00;99870.94;;;-1.05;92.30
62655;BME280;48717;55.556;37.816;2024-02-23T09:30:28;99870.94;;;-1.05;92.43
62655;BME280;48717;55.556;37.816;2024-02-23T09:32:55;99873.75;;;-1.00;92.37
62655;BME280;48717;55.556;37.816;2024-02-23T09:35:23;99885.81;;;-1.00;92.47
62655;BME280;48717;55.556;37.816;2024-02-23T09:37:51;99877.50;;;-1.13;92.64
62655;BME280;48717;55.556;37.816;2024-02-23T09:40:19;99883.22;;;-1.00;93.03
62655;BME280;48717;55.556;37.816;2024-02-23T09:42:55;99876.69;;;-0.92;92.07
62655;BME280;48717;55.556;37.816;2024-02-23T09:45:25;99889.63;;;-0.74;91.49
62655;BME280;48717;55.556;37.816;2024-02-23T09:47:56;99882.44;;;-0.80;91.31
62655;BME280;48717;55.556;37.816;2024-02-23T09:50:25;99893.06;;;-0.73;91.42
62655;BME280;48717;55.556;37.816;2024-02-23T09:52:52;99889.69;;;-0.72;91.41
62655;BME280;48717;55.556;37.816;2024-02-23T09:55:21;99874.78;;;-0.96;91.70
62655;BME280;48717;55.556;37.816;2024-02-23T09:57:51;99880.69;;;-0.81;92.62
62655;BME280;48717;55.556;37.816;2024-02-23T10:00:23;99880.84;;;-0.77;93.04
62655;BME280;48717;55.556;37.816;2024-02-23T10:02:50;99893.06;;;-0.73;92.20
62655;BME280;48717;55.556;37.816;2024-02-23T10:05:18;99875.59;;;-0.79;91.90
62655;BME280;48717;55.556;37.816;2024-02-23T10:07:46;99880.00;;;-0.76;92.25
62655;BME280;48717;55.556;37.816;2024-02-23T10:10:33;99886.53;;;-0.65;92.63
62655;BME280;48717;55.556;37.816;2024-02-23T10:13:01;99886.28;;;-0.71;93.05
62655;BME280;48717;55.556;37.816;2024-02-23T10:15:31;99913.50;;;-0.61;92.19
62655;BME280;48717;55.556;37.816;2024-02-23T10:17:58;99897.22;;;-0.59;92.43
62655;BME280;48717;55.556;37.816;2024-02-23T10:20:26;99861.88;;;-0.76;92.07
62655;BME280;48717;55.556;37.816;2024-02-23T10:22:54;99882.88;;;-0.70;93.86
62655;BME280;48717;55.556;37.816;2024-02-23T10:25:22;99876.59;;;-0.56;92.95
62655;BME280;48717;55.556;37.816;2024-02-23T10:27:50;99886.44;;;-0.68;93.54
62655;BME280;48717;55.556;37.816;2024-02-23T10:30:17;99896.66;;;-0.51;93.16
62655;BME280;48717;55.556;37.816;2024-02-23T10:32:46;99881.66;;;-0.39;93.97
62655;BME280;48717;55.556;37.816;2024-02-23T10:35:14;99893.25;;;-0.31;93.01
62655;BME280;48717;55.556;37.816;2024-02-23T10:37:44;99897.50;;;-0.33;92.77
62655;BME280;48717;55.556;37.816;2024-02-23T10:40:21;99897.59;;;-0.30;93.16
62655;BME280;48717;55.556;37.816;2024-02-23T10:42:56;99910.31;;;-0.36;93.50
62655;BME280;48717;55.556;37.816;2024-02-23T10:45:24;99902.94;;;-0.46;94.31
62655;BME280;48717;55.556;37.816;2024-02-23T10:47:52;99904.56;;;-0.48;93.96
62655;BME280;48717;55.556;37.816;2024-02-23T10:50:21;99903.06;;;-0.43;94.83
62655;BME280;48717;55.556;37.816;2024-02-23T10:52:50;99901.84;;;-0.32;95.04
62655;BME280;48717;55.556;37.816;2024-02-23T10:55:17;99883.84;;;-0.48;95.22
62655;BME280;48717;55.556;37.816;2024-02-23T10:57:48;99902.03;;;-0.47;95.85
62655;BME280;48717;55.556;37.816;2024-02-23T11:00:18;99903.22;;;-0.60;95.38
62655;BME280;48717;55.556;37.816;2024-02-23T11:02:51;99921.34;;;-0.60;97.35
62655;BME280;48717;55.556;37.816;2024-02-23T11:05:19;99915.25;;;-0.60;96.38
62655;BME280;48717;55.556;37.816;2024-02-23T11:07:47;99915.69;;;-0.51;97.37
62655;BME280;48717;55.556;37.816;2024-02-23T11:10:16;99924.63;;;-0.44;96.39
62655;BME280;48717;55.556;37.816;2024-02-23T11:12:44;99932.53;;;-0.41;96.28
62655;BME280;48717;55.556;37.816;2024-02-23T11:15:26;99941.81;;;-0.27;96.09
62655;BME280;48717;55.556;37.816;2024-02-23T11:17:54;99928.03;;;-0.25;96.37
62655;BME280;48717;55.556;37.816;2024-02-23T11:20:23;99932.19;;;-0.29;95.51
62655;BME280;48717;55.556;37.816;2024-02-23T11:22:57;99910.31;;;-0.36;96.41
62655;BME280;48717;55.556;37.816;2024-02-23T11:25:29;99930.22;;;-0.35;96.11
62655;BME280;48717;55.556;37.816;2024-02-23T11:27:57;99927.47;;;-0.38;96.69
62655;BME280;48717;55.556;37.816;2024-02-23T11:30:26;99923.94;;;-0.40;96.63
62655;BME280;48717;55.556;37.816;2024-02-23T11:32:59;99927.53;;;-0.36;95.99
62655;BME280;48717;55.556;37.816;2024-02-23T11:35:27;99932.13;;;-0.31;96.79
62655;BME280;48717;55.556;37.816;2024-02-23T11:37:56;99915.22;;;-0.42;96.82
62655;BME280;48717;55.556;37.816;2024-02-23T11:40:28;99937.53;;;-0.26;97.47
62655;BME280;48717;55.556;37.816;2024-02-23T11:42:57;99930.06;;;-0.18;97.32
62655;BME280;48717;55.556;37.816;2024-02-23T11:45:28;99915.47;;;-0.16;96.56
62655;BME280;48717;55.556;37.816;2024-02-23T11:47:56;99912.22;;;-0.32;96.54
62655;BME280;48717;55.556;37.816;2024-02-23T11:50:24;99938.38;;;-0.25;96.81
62655;BME280;48717;55.556;37.816;2024-02-23T11:52:51;99950.66;;;-0.21;96.95
62655;BME280;48717;55.556;37.816;2024-02-23T11:55:19;99916.50;;;-0.32;97.55
62655;BME280;48717;55.556;37.816;2024-02-23T11:57:51;99917.94;;;-0.19;97.10
62655;BME280;48717;55.556;37.816;2024-02-23T12:00:33;99935.13;;;-0.21;96.69
62655;BME280;48717;55.556;37.816;2024-02-23T12:03:03;99952.16;;;-0.27;97.79
62655;BME280;48717;55.556;37.816;2024-02-23T12:05:31;99941.59;;;-0.31;98.65
62655;BME280;48717;55.556;37.816;2024-02-23T12:07:59;99946.03;;;-0.29;98.64
62655;BME280;48717;55.556;37.816;2024-02-23T12:10:27;99934.84;;;-0.28;98.46
62655;BME280;48717;55.556;37.816;2024-02-23T12:12:55;99933.09;;;-0.29;98.30
62655;BME280;48717;55.556;37.816;2024-02-23T12:15:23;99935.13;;;-0.21;98.43
62655;BME280;48717;55.556;37.816;2024-02-23T12:17:51;99924.34;;;-0.31;98.39
62655;BME280;48717;55.556;37.816;2024-02-23T12:20:19;99948.16;;;-0.20;98.79
62655;BME280;48717;55.556;37.816;2024-02-23T12:22:48;99929.44;;;-0.32;99.11
62655;BME280;48717;55.556;37.816;2024-02-23T12:25:16;99927.25;;;-0.23;98.51
62655;BME280;48717;55.556;37.816;2024-02-23T12:27:44;99931.28;;;-0.30;99.15
62655;BME280;48717;55.556;37.816;2024-02-23T12:30:15;99943.31;;;-0.32;99.03
62655;BME280;48717;55.556;37.816;2024-02-23T12:32:45;99943.91;;;-0.37;99.01
62655;BME280;48717;55.556;37.816;2024-02-23T12:35:14;99953.94;;;-0.25;100.00
62655;BME280;48717;55.556;37.816;2024-02-23T12:37:44;99953.41;;;-0.18;99.81
62655;BME280;48717;55.556;37.816;2024-02-23T12:40:12;99953.00;;;-0.28;99.49
62655;BME280;48717;55.556;37.816;2024-02-23T12:42:41;99952.31;;;-0.23;99.67
62655;BME280;48717;55.556;37.816;2024-02-23T12:45:08;99952.44;;;-0.20;99.45
62655;BME280;48717;55.556;37.816;2024-02-23T12:47:36;99957.63;;;-0.20;99.59
62655;BME280;48717;55.556;37.816;2024-02-23T12:50:04;99962.00;;;-0.19;100.00